createdAt,value
2022-08-14T00:02:31.304Z,19.19
2022-08-14T00:07:41.946Z,18.83
2022-08-14T00:12:56.402Z,18.76
2022-08-14T00:17:59.535Z,18.64
2022-08-14T00:23:14.573Z,18.83
2022-08-14T00:28:22.098Z,18.99
2022-08-14T00:33:51.125Z,18.96
2022-08-14T00:38:49.384Z,19.00
2022-08-14T00:43:51.470Z,18.96
2022-08-14T00:48:53.684Z,18.90
2022-08-14T00:53:56.507Z,19.04
2022-08-14T00:58:59.935Z,19.11
2022-08-14T01:04:05.643Z,19.06
2022-08-14T01:09:09.012Z,18.73
2022-08-14T01:14:26.041Z,18.48
2022-08-14T01:19:49.440Z,18.30
2022-08-14T01:24:51.842Z,18.13
2022-08-14T01:30:01.222Z,18.21
2022-08-14T01:35:17.849Z,18.44
2022-08-14T01:40:37.084Z,18.35
2022-08-14T01:45:48.729Z,18.55
2022-08-14T01:50:51.856Z,18.63
2022-08-14T01:55:58.557Z,18.59
2022-08-14T02:01:00.684Z,18.68
2022-08-14T02:06:32.473Z,18.82
2022-08-14T02:11:26.501Z,18.77
2022-08-14T02:16:36.693Z,18.71
2022-08-14T02:21:47.152Z,18.78
2022-08-14T02:28:19.297Z,18.74
2022-08-14T02:32:29.870Z,18.78
2022-08-14T02:37:45.686Z,18.05
2022-08-14T02:42:55.180Z,17.79
2022-08-14T02:48:06.792Z,17.98
2022-08-14T02:53:12.960Z,17.94
2022-08-14T02:58:21.500Z,18.09
2022-08-14T03:03:35.438Z,18.24
2022-08-14T03:08:46.078Z,18.40
2022-08-14T03:13:51.890Z,18.41
2022-08-14T03:18:59.751Z,18.39
2022-08-14T03:24:16.520Z,18.37
2022-08-14T03:29:26.700Z,18.20
2022-08-14T03:34:52.992Z,18.04
2022-08-14T03:39:53.421Z,18.13
2022-08-14T03:45:19.618Z,18.32
2022-08-14T03:50:30.922Z,18.66
2022-08-14T03:55:34.230Z,18.60
2022-08-14T04:00:42.783Z,18.66
2022-08-14T04:05:48.999Z,18.75
2022-08-14T04:10:51.623Z,18.61
2022-08-14T04:15:56.761Z,18.44
2022-08-14T04:21:04.613Z,18.47
2022-08-14T04:26:14.751Z,18.58
2022-08-14T04:33:10.255Z,18.65
2022-08-14T04:37:13.942Z,18.73
2022-08-14T04:42:47.502Z,19.04
2022-08-14T04:48:12.618Z,19.48
2022-08-14T04:53:26.215Z,19.78
2022-08-14T04:58:48.184Z,19.95
2022-08-14T05:03:50.667Z,20.06
2022-08-14T05:08:57.247Z,20.19
2022-08-14T05:14:16.095Z,20.67
2022-08-14T05:19:44.883Z,20.80
2022-08-14T05:25:05.177Z,20.67
2022-08-14T05:30:08.478Z,21.04
2022-08-14T05:35:12.007Z,22.00
2022-08-14T05:40:17.052Z,22.63
2022-08-14T05:45:21.285Z,23.44
2022-08-14T05:50:24.534Z,24.64
2022-08-14T05:55:32.605Z,25.58
2022-08-14T06:00:42.314Z,25.64
2022-08-14T06:05:47.543Z,25.39
2022-08-14T06:10:56.818Z,25.41
2022-08-14T06:15:59.810Z,25.40
2022-08-14T06:21:06.425Z,25.51
2022-08-14T06:26:16.355Z,25.72
2022-08-14T06:31:23.346Z,26.16
2022-08-14T06:36:26.057Z,26.43
2022-08-14T06:41:57.481Z,26.67
2022-08-14T06:46:51.568Z,27.11
2022-08-14T06:51:54.490Z,28.57
2022-08-14T06:56:57.162Z,29.98
2022-08-14T07:02:19.187Z,30.26
2022-08-14T07:07:21.497Z,29.93
2022-08-14T07:12:52.131Z,28.94
2022-08-14T07:17:52.057Z,28.85
2022-08-14T07:23:02.466Z,28.48
2022-08-14T07:28:12.908Z,28.43
2022-08-14T07:33:32.518Z,28.25
2022-08-14T07:38:37.896Z,27.99
2022-08-14T07:43:52.966Z,27.93
2022-08-14T07:48:59.993Z,27.58
2022-08-14T07:54:02.215Z,27.35
2022-08-14T07:59:06.374Z,27.15
2022-08-14T08:04:18.829Z,27.14
2022-08-14T08:09:32.395Z,27.59
2022-08-14T08:14:56.886Z,27.46
2022-08-14T08:19:58.085Z,27.56
2022-08-14T08:25:00.950Z,27.12
2022-08-14T08:30:10.109Z,27.52
2022-08-14T08:35:25.869Z,27.72
2022-08-14T08:40:50.137Z,27.41
2022-08-14T08:45:59.753Z,27.91
2022-08-14T08:51:05.065Z,27.84
2022-08-14T08:56:07.533Z,28.43
2022-08-14T09:01:12.458Z,28.68
2022-08-14T09:07:00.069Z,28.50
2022-08-14T09:11:37.046Z,29.05
2022-08-14T09:16:41.563Z,28.54
2022-08-14T09:21:49.310Z,29.04
2022-08-14T09:26:57.344Z,29.26
2022-08-14T09:32:03.512Z,30.00
2022-08-14T09:37:28.932Z,30.11
2022-08-14T09:42:50.207Z,29.25
2022-08-14T09:47:56.094Z,28.69
2022-08-14T09:52:59.705Z,28.14
2022-08-14T09:58:22.697Z,27.42
2022-08-14T10:03:33.097Z,27.25
2022-08-14T10:08:50.872Z,27.63
2022-08-14T10:13:57.146Z,27.79
2022-08-14T10:19:09.376Z,28.83
2022-08-14T10:24:23.309Z,28.91
2022-08-14T10:29:34.853Z,28.70
2022-08-14T10:34:40.896Z,28.48
2022-08-14T10:39:51.377Z,28.58
2022-08-14T10:45:21.537Z,27.80
2022-08-14T10:50:35.871Z,27.26
2022-08-14T10:55:45.653Z,26.46
2022-08-14T11:00:57.380Z,26.08
2022-08-14T11:06:01.476Z,25.48
2022-08-14T11:11:07.331Z,25.07
2022-08-14T11:16:11.702Z,24.93
2022-08-14T11:21:21.444Z,24.36
2022-08-14T11:26:30.080Z,23.83
2022-08-14T11:31:39.002Z,22.75
2022-08-14T11:37:02.239Z,21.87
2022-08-14T11:42:55.433Z,21.17
2022-08-14T11:47:35.022Z,20.58
2022-08-14T11:52:46.434Z,20.62
2022-08-14T11:58:03.670Z,20.87
2022-08-14T12:03:08.243Z,21.16
2022-08-14T12:08:13.716Z,22.35
2022-08-14T12:13:22.519Z,22.91
2022-08-14T12:18:34.924Z,23.12
2022-08-14T12:23:37.457Z,23.22
2022-08-14T12:28:59.158Z,23.38
2022-08-14T12:34:10.274Z,23.12
2022-08-14T12:39:21.414Z,23.24
2022-08-14T12:44:32.537Z,23.29
2022-08-14T12:49:35.034Z,23.67
2022-08-14T12:54:57.287Z,23.72
2022-08-14T13:00:22.513Z,23.76
2022-08-14T13:05:32.651Z,23.75
2022-08-14T13:10:52.004Z,23.67
2022-08-14T13:15:57.241Z,23.37
2022-08-14T13:21:02.263Z,23.08
2022-08-14T13:26:05.122Z,22.97
2022-08-14T13:31:11.761Z,22.43
2022-08-14T13:36:24.137Z,21.99
2022-08-14T13:41:38.705Z,21.63
2022-08-14T13:46:45.918Z,21.29
2022-08-14T13:51:53.434Z,21.24
2022-08-14T13:57:00.039Z,20.97
2022-08-14T14:02:07.989Z,20.75
2022-08-14T14:07:17.563Z,20.19
2022-08-14T14:12:37.510Z,19.82
2022-08-14T14:17:48.781Z,18.98
2022-08-14T14:23:02.346Z,18.63
2022-08-14T14:28:05.990Z,18.03
2022-08-14T14:33:42.489Z,17.51
2022-08-14T14:38:34.461Z,17.53
2022-08-14T14:43:45.102Z,17.62
2022-08-14T14:48:54.018Z,17.56
2022-08-14T14:54:01.716Z,17.36
2022-08-14T14:59:07.072Z,17.52
2022-08-14T15:04:20.663Z,17.33
2022-08-14T15:09:23.827Z,17.40
2022-08-14T15:14:56.889Z,17.64
2022-08-14T15:19:56.662Z,17.41
2022-08-14T15:24:59.398Z,17.31
2022-08-14T15:30:08.245Z,17.18
2022-08-14T15:35:12.061Z,17.23
2022-08-14T15:40:16.407Z,17.14
2022-08-14T15:45:27.356Z,17.29
2022-08-14T15:50:32.150Z,17.27
2022-08-14T15:55:34.385Z,17.64
2022-08-14T16:00:55.995Z,17.53
2022-08-14T16:06:02.927Z,17.58
2022-08-14T16:11:08.532Z,17.55
2022-08-14T16:16:34.690Z,17.49
2022-08-14T16:22:01.586Z,17.38
2022-08-14T16:27:09.953Z,17.35
2022-08-14T16:32:33.078Z,17.44
2022-08-14T16:37:43.462Z,17.47
2022-08-14T16:43:04.054Z,17.27
2022-08-14T16:48:54.709Z,17.32
2022-08-14T16:53:37.597Z,17.42
2022-08-14T16:58:41.281Z,17.38
2022-08-14T17:03:52.857Z,17.34
2022-08-14T17:08:58.013Z,17.32
2022-08-14T17:14:01.763Z,17.47
2022-08-14T17:19:05.742Z,17.41
2022-08-14T17:24:56.167Z,17.37
2022-08-14T17:35:10.137Z,17.73
2022-08-14T17:40:18.201Z,17.56
2022-08-14T17:45:42.683Z,17.28
2022-08-14T17:51:00.259Z,17.49
2022-08-14T17:56:04.124Z,17.68
2022-08-14T18:01:07.103Z,18.31
2022-08-14T18:06:38.513Z,17.99
2022-08-14T18:11:45.532Z,17.99
2022-08-14T18:16:52.326Z,17.75
2022-08-14T18:21:57.987Z,17.60
2022-08-14T18:27:12.457Z,17.38
2022-08-14T18:32:47.038Z,18.02
2022-08-14T18:37:55.873Z,17.94
2022-08-14T18:43:03.275Z,18.06
2022-08-14T18:48:18.739Z,18.12
2022-08-14T18:53:34.008Z,18.21
2022-08-14T18:58:58.487Z,18.30
2022-08-14T19:04:02.493Z,18.53
2022-08-14T19:09:06.914Z,18.67
2022-08-14T19:14:13.774Z,18.84
2022-08-14T19:19:18.779Z,18.81
2022-08-14T19:24:43.733Z,18.63
2022-08-14T19:29:47.843Z,18.28
2022-08-14T19:34:54.258Z,18.07
2022-08-14T19:40:15.603Z,18.13
2022-08-14T19:45:25.762Z,17.80
2022-08-14T19:50:40.292Z,17.22
2022-08-14T19:55:47.466Z,17.14
2022-08-14T20:00:57.316Z,17.12
2022-08-14T20:06:01.417Z,17.59
2022-08-14T20:12:00.697Z,17.54
2022-08-14T20:16:47.565Z,17.55
2022-08-14T20:21:58.427Z,17.15
2022-08-14T20:27:40.054Z,16.94
2022-08-14T20:33:00.517Z,17.16
2022-08-14T20:38:30.604Z,17.13
2022-08-14T20:43:55.658Z,17.46
2022-08-14T20:49:09.902Z,17.58
2022-08-14T20:54:34.250Z,17.53
2022-08-14T20:59:43.932Z,17.38
2022-08-14T21:05:02.427Z,17.27
2022-08-14T21:10:35.847Z,17.21
2022-08-14T21:15:35.933Z,16.93
2022-08-14T21:20:39.665Z,16.95
2022-08-14T21:25:44.987Z,16.98
2022-08-14T21:30:52.002Z,16.98
2022-08-14T21:35:56.665Z,16.96
2022-08-14T21:41:42.913Z,16.87
2022-08-14T21:46:28.657Z,16.79
2022-08-14T21:51:54.538Z,16.82
2022-08-14T21:56:57.488Z,16.64
2022-08-14T22:02:03.438Z,16.64
2022-08-14T22:07:09.844Z,16.63
2022-08-14T22:12:58.103Z,16.69
2022-08-14T22:17:40.053Z,16.89
2022-08-14T22:22:47.036Z,17.16
2022-08-14T22:27:56.061Z,17.36
2022-08-14T22:33:00.420Z,17.45
2022-08-14T22:38:34.801Z,17.56
2022-08-14T22:43:25.460Z,17.22
2022-08-14T22:48:29.391Z,17.06
2022-08-14T22:53:31.824Z,17.07
2022-08-14T22:58:34.767Z,16.98
2022-08-14T23:03:37.179Z,16.85
2022-08-14T23:09:00.326Z,16.87
2022-08-14T23:14:02.346Z,17.06
2022-08-14T23:19:09.020Z,17.03
2022-08-14T23:24:12.693Z,16.82
2022-08-14T23:29:20.491Z,16.75
2022-08-14T23:34:25.688Z,16.64
2022-08-14T23:39:34.465Z,16.66
2022-08-14T23:44:38.921Z,16.70
2022-08-14T23:50:00.257Z,16.68
2022-08-14T23:55:04.783Z,16.59
